Ranchester, WY (82839)

7:39 AM MDT on September 30, 2014 (GMT -0600)
KWYSHERI2 | Change Station
CLOSE
Current Station
Personal Weather Station
Location: Sheridan, WY
Elevation: 3828 ft
Nearby Weather Stations

Elev 3828 ft 44.81 °N, 106.98 °W | Updated 6 minutes ago

Partly Cloudy
Partly Cloudy
49.8 °F
Feels Like 50 °F
N
0.0
Wind Variable Wind from WNW
Gusts 0.0 mph

Today
High -- | Low -- °F
--% Chance of Precip.
Yesterday
High -- | Low -- °F
Precip. -- in
7:05 AM 6:50 PM
Waxing Crescent, 36% visible
Pressure 29.66 in
Visibility 10.0 miles
Clouds Clear
Windchill 50 °F
Dew Point 43 °F
Humidity 77%
Rainfall 0.00 in
Snow Depth 0 in , 0 in , 0 in
UV 0 out of 12
Pollen 2.70 out of 12
Air Quality Not available.
Flu Activity Not available.
METAR KSHR 301253Z AUTO 29008KT 10SM CLR 10/06 A2969 RMK AO2 SLP043 T01000056

More Conditions Fewer Conditions

Pressure 29.66 in
Visibility 10.0 miles
Clouds Clear
Windchill 50 °F
Dew Point 43 °F
Humidity 77%
Rainfall 0.00 in
Snow Depth 0 in , 0 in , 0 in
UV 0 out of 12
Pollen 2.70 out of 12
Air Quality Not available.
Flu Activity Not available.
METAR KSHR 301253Z AUTO 29008KT 10SM CLR 10/06 A2969 RMK AO2 SLP043 T01000056

More Conditions Fewer Conditions

10-Day Weather Forecast

Almanac

Astronomy

Sep. 30, 2014 Rise Set
Actual Time 7:05 AM MDT 6:50 PM MDT
Civil Twilight 6:36 AM MDT 7:19 PM MDT
Nautical Twilight 6:02 AM MDT 7:53 PM MDT
Astronomical Twilight 5:27 AM MDT 8:28 PM MDT
Moon 1:27 PM MDT 11:12 PM MDT
Length of Visible Light 12h 43m
Length of Day
11h 45m
Tomorrow will be 3m 7s shorter.
Waxing Crescent, 36% of the Moon is Illuminated
Today
Waxing Crescent
Oct 1
First Quarter
Oct 8
Full
Oct 15
Last Quarter
Oct 23
New

Today's Extremes

State Highs State Lows

Community

WunderPhotos

Upload Photos

1,757,636 photos uploaded!

Nearby

Snow Depth

Station Depth Elevation
Webber Springs 0 in 9250 ft
Little Snake River 0 in 8915 ft
Kelley R.S. 0 in 8180 ft
Kendall R.S. 1 in 7740 ft
New Fork Lake 0 in 8340 ft

Earthquake Activity

City Distance Mag. Time & Date
No recent earthquake activity has been reported nearby.
Minimum magnitude displayed is 2.5.

Coastal Water Temperatures

Place Temperature
No Stations Reporting

Nearby Weather Stations